UIA8757 RCSS-RCFG
Flight info
| Callsign | UIA8757 |
|---|---|
| Flight time | 0h 33m |
| Altitude | 12000 |
| Route | APU1A APU W8 TONNY/K0528F120 W8 HAPPY/K0528S0360 |
| Aircraft | AT75/M-SDFGIRY/S |
Departure
| Time | 2026-05-09 02:45 |
|---|---|
| Airport | Taipei Songshan International Airport (RCSS) |
Arrival
| Time | 2026-05-09 03:18 |
|---|---|
| Airport | Matsu Nangan Airport (RCFG) |
| Time | Latitude | Longitude | Altitude | Speed | Heading |
|---|---|---|---|---|---|
| 2026-05-09 02:32 | 25.06693 | 121.54972 | 23 ft | 0 kts | 178° |
| 2026-05-09 02:39 | 25.06706 | 121.54971 | 22 ft | 2 kts | 178° |
| 2026-05-09 02:39 | 25.06721 | 121.54971 | 22 ft | 2 kts | 178° |
| 2026-05-09 02:39 | 25.06735 | 121.54973 | 22 ft | 2 kts | 213° |
| 2026-05-09 02:39 | 25.06743 | 121.54985 | 21 ft | 1 kts | 266° |
| 2026-05-09 02:40 | 25.06743 | 121.54989 | 21 ft | 0 kts | 270° |
| 2026-05-09 02:42 | 25.06742 | 121.54923 | 23 ft | 13 kts | 267° |
| 2026-05-09 02:42 | 25.06737 | 121.54803 | 23 ft | 17 kts | 268° |
| 2026-05-09 02:42 | 25.06685 | 121.54746 | 24 ft | 11 kts | 181° |
| 2026-05-09 02:42 | 25.06599 | 121.54745 | 24 ft | 13 kts | 203° |
| 2026-05-09 02:43 | 25.06605 | 121.54662 | 26 ft | 13 kts | 303° |
| 2026-05-09 02:43 | 25.06657 | 121.54569 | 26 ft | 15 kts | 306° |
| 2026-05-09 02:43 | 25.06730 | 121.54481 | 26 ft | 16 kts | 302° |
| 2026-05-09 02:43 | 25.06786 | 121.54370 | 26 ft | 16 kts | 300° |
| 2026-05-09 02:44 | 25.06862 | 121.54240 | 26 ft | 23 kts | 303° |
| 2026-05-09 02:44 | 25.06934 | 121.54112 | 26 ft | 17 kts | 339° |
| 2026-05-09 02:44 | 25.06999 | 121.54171 | 26 ft | 13 kts | 90° |
| 2026-05-09 02:44 | 25.06987 | 121.54487 | 23 ft | 81 kts | 92° |
| 2026-05-09 02:45 | 25.06954 | 121.55324 | 120 ft | 126 kts | 93° |
| 2026-05-09 02:45 | 25.06915 | 121.56307 | 555 ft | 131 kts | 92° |
| 2026-05-09 02:45 | 25.06869 | 121.57322 | 995 ft | 135 kts | 93° |
| 2026-05-09 02:45 | 25.06734 | 121.58381 | 1404 ft | 141 kts | 99° |
| 2026-05-09 02:46 | 25.06572 | 121.59452 | 1831 ft | 144 kts | 99° |
| 2026-05-09 02:46 | 25.06402 | 121.60545 | 2199 ft | 152 kts | 100° |
| 2026-05-09 02:46 | 25.06209 | 121.61767 | 2488 ft | 167 kts | 100° |
| 2026-05-09 02:46 | 25.06012 | 121.63020 | 2969 ft | 168 kts | 100° |
| 2026-05-09 02:47 | 25.06020 | 121.64295 | 3427 ft | 170 kts | 67° |
| 2026-05-09 02:47 | 25.06810 | 121.65196 | 3886 ft | 170 kts | 24° |
| 2026-05-09 02:47 | 25.07969 | 121.65241 | 4330 ft | 171 kts | 339° |
| 2026-05-09 02:47 | 25.08826 | 121.64384 | 4758 ft | 172 kts | 295° |
| 2026-05-09 02:48 | 25.09177 | 121.63136 | 5198 ft | 173 kts | 286° |
| 2026-05-09 02:48 | 25.09515 | 121.61858 | 5619 ft | 174 kts | 291° |
| 2026-05-09 02:48 | 25.10114 | 121.60707 | 6033 ft | 175 kts | 307° |
| 2026-05-09 02:48 | 25.10894 | 121.59676 | 6444 ft | 176 kts | 312° |
| 2026-05-09 02:49 | 25.11735 | 121.58701 | 6843 ft | 177 kts | 314° |
| 2026-05-09 02:49 | 25.12611 | 121.57731 | 7239 ft | 178 kts | 315° |
| 2026-05-09 02:49 | 25.13498 | 121.56763 | 7627 ft | 180 kts | 315° |
| 2026-05-09 02:49 | 25.14378 | 121.55808 | 8001 ft | 181 kts | 315° |
| 2026-05-09 02:50 | 25.15277 | 121.54834 | 8372 ft | 182 kts | 316° |
| 2026-05-09 02:50 | 25.16177 | 121.53860 | 8735 ft | 183 kts | 316° |
| 2026-05-09 02:50 | 25.17089 | 121.52872 | 9093 ft | 184 kts | 316° |
| 2026-05-09 02:50 | 25.17913 | 121.51817 | 9434 ft | 185 kts | 306° |
| 2026-05-09 02:51 | 25.18662 | 121.50658 | 9779 ft | 185 kts | 305° |
| 2026-05-09 02:51 | 25.19398 | 121.49494 | 10112 ft | 186 kts | 305° |
| 2026-05-09 02:51 | 25.20144 | 121.48309 | 10442 ft | 187 kts | 305° |
| 2026-05-09 02:51 | 25.20888 | 121.47124 | 10765 ft | 188 kts | 305° |
| 2026-05-09 02:52 | 25.21626 | 121.45947 | 11077 ft | 189 kts | 305° |
| 2026-05-09 02:52 | 25.22377 | 121.44751 | 11386 ft | 190 kts | 305° |
| 2026-05-09 02:52 | 25.23137 | 121.43539 | 11692 ft | 191 kts | 305° |
| 2026-05-09 02:52 | 25.23895 | 121.42329 | 11956 ft | 194 kts | 305° |
| 2026-05-09 02:53 | 25.24686 | 121.41066 | 12011 ft | 207 kts | 305° |
| 2026-05-09 02:53 | 25.25532 | 121.39716 | 12020 ft | 221 kts | 305° |
| 2026-05-09 02:53 | 25.26423 | 121.38294 | 12019 ft | 232 kts | 305° |
| 2026-05-09 02:53 | 25.27355 | 121.36804 | 12017 ft | 241 kts | 305° |
| 2026-05-09 02:54 | 25.28324 | 121.35256 | 12015 ft | 248 kts | 305° |
| 2026-05-09 02:54 | 25.29314 | 121.33674 | 12014 ft | 254 kts | 304° |
| 2026-05-09 02:54 | 25.30330 | 121.32050 | 12013 ft | 258 kts | 304° |
| 2026-05-09 02:54 | 25.31355 | 121.30410 | 12012 ft | 262 kts | 304° |
| 2026-05-09 02:55 | 25.32406 | 121.28730 | 12011 ft | 265 kts | 304° |
| 2026-05-09 02:55 | 25.33458 | 121.27045 | 12011 ft | 268 kts | 304° |
| 2026-05-09 02:55 | 25.34519 | 121.25346 | 12010 ft | 269 kts | 304° |
| 2026-05-09 02:55 | 25.35574 | 121.23657 | 12010 ft | 271 kts | 304° |
| 2026-05-09 02:56 | 25.36655 | 121.21926 | 12010 ft | 272 kts | 304° |
| 2026-05-09 02:56 | 25.37725 | 121.20209 | 12009 ft | 273 kts | 304° |
| 2026-05-09 02:56 | 25.38809 | 121.18473 | 12009 ft | 274 kts | 304° |
| 2026-05-09 02:56 | 25.39894 | 121.16733 | 12009 ft | 274 kts | 304° |
| 2026-05-09 02:57 | 25.40975 | 121.14997 | 12009 ft | 275 kts | 304° |
| 2026-05-09 02:57 | 25.42054 | 121.13268 | 12009 ft | 275 kts | 304° |
| 2026-05-09 02:57 | 25.43138 | 121.11530 | 12009 ft | 275 kts | 304° |
| 2026-05-09 02:57 | 25.44222 | 121.09791 | 12009 ft | 275 kts | 304° |
| 2026-05-09 02:58 | 25.45310 | 121.08046 | 12009 ft | 276 kts | 304° |
| 2026-05-09 02:58 | 25.46396 | 121.06303 | 12009 ft | 276 kts | 304° |
| 2026-05-09 02:58 | 25.47479 | 121.04563 | 12009 ft | 276 kts | 304° |
| 2026-05-09 02:58 | 25.48581 | 121.02792 | 12009 ft | 276 kts | 304° |
| 2026-05-09 02:59 | 25.49662 | 121.01057 | 12009 ft | 276 kts | 304° |
| 2026-05-09 02:59 | 25.50762 | 120.99289 | 12009 ft | 276 kts | 304° |
| 2026-05-09 02:59 | 25.51834 | 120.97565 | 12009 ft | 276 kts | 304° |
| 2026-05-09 02:59 | 25.52935 | 120.95794 | 12009 ft | 276 kts | 304° |
| 2026-05-09 03:00 | 25.54021 | 120.94046 | 12009 ft | 276 kts | 304° |
| 2026-05-09 03:00 | 25.55106 | 120.92300 | 12009 ft | 276 kts | 304° |
| 2026-05-09 03:00 | 25.56189 | 120.90556 | 12009 ft | 276 kts | 304° |
| 2026-05-09 03:00 | 25.57282 | 120.88796 | 12009 ft | 276 kts | 304° |
| 2026-05-09 03:01 | 25.58370 | 120.87041 | 12009 ft | 276 kts | 304° |
| 2026-05-09 03:01 | 25.59450 | 120.85300 | 12009 ft | 276 kts | 304° |
| 2026-05-09 03:01 | 25.60537 | 120.83546 | 12009 ft | 276 kts | 304° |
| 2026-05-09 03:01 | 25.61621 | 120.81798 | 12009 ft | 276 kts | 304° |
| 2026-05-09 03:02 | 25.62701 | 120.80055 | 12009 ft | 276 kts | 304° |
| 2026-05-09 03:02 | 25.63785 | 120.78305 | 12009 ft | 276 kts | 304° |
| 2026-05-09 03:02 | 25.64870 | 120.76553 | 12009 ft | 276 kts | 304° |
| 2026-05-09 03:02 | 25.65958 | 120.74794 | 12009 ft | 276 kts | 304° |
| 2026-05-09 03:03 | 25.67055 | 120.73021 | 12009 ft | 276 kts | 304° |
| 2026-05-09 03:03 | 25.68126 | 120.71290 | 12009 ft | 276 kts | 304° |
| 2026-05-09 03:03 | 25.69219 | 120.69521 | 12009 ft | 276 kts | 304° |
| 2026-05-09 03:03 | 25.70303 | 120.67767 | 12009 ft | 276 kts | 304° |
| 2026-05-09 03:04 | 25.71387 | 120.66013 | 12009 ft | 276 kts | 304° |
| 2026-05-09 03:04 | 25.72468 | 120.64261 | 12009 ft | 276 kts | 304° |
| 2026-05-09 03:04 | 25.73551 | 120.62508 | 12009 ft | 276 kts | 304° |
| 2026-05-09 03:04 | 25.74632 | 120.60755 | 12009 ft | 276 kts | 304° |
| 2026-05-09 03:05 | 25.75715 | 120.58999 | 12009 ft | 276 kts | 304° |
| 2026-05-09 03:05 | 25.76804 | 120.57234 | 12009 ft | 276 kts | 304° |
| 2026-05-09 03:05 | 25.77886 | 120.55501 | 12009 ft | 276 kts | 305° |
| 2026-05-09 03:05 | 25.78986 | 120.53755 | 12009 ft | 276 kts | 305° |
| 2026-05-09 03:06 | 25.80087 | 120.52011 | 12009 ft | 276 kts | 305° |
| 2026-05-09 03:06 | 25.81198 | 120.50250 | 12009 ft | 276 kts | 305° |
| 2026-05-09 03:06 | 25.82296 | 120.48509 | 12009 ft | 276 kts | 305° |
| 2026-05-09 03:06 | 25.83398 | 120.46762 | 12009 ft | 276 kts | 305° |
| 2026-05-09 03:07 | 25.84496 | 120.45021 | 12009 ft | 276 kts | 305° |
| 2026-05-09 03:07 | 25.85597 | 120.43274 | 12009 ft | 276 kts | 305° |
| 2026-05-09 03:07 | 25.86684 | 120.41549 | 12009 ft | 276 kts | 305° |
| 2026-05-09 03:07 | 25.87798 | 120.39780 | 12009 ft | 276 kts | 305° |
| 2026-05-09 03:08 | 25.88884 | 120.38055 | 12009 ft | 276 kts | 305° |
| 2026-05-09 03:08 | 25.89987 | 120.36302 | 12009 ft | 276 kts | 305° |
| 2026-05-09 03:08 | 25.90847 | 120.34399 | 12007 ft | 276 kts | 285° |
| 2026-05-09 03:08 | 25.91344 | 120.32346 | 12014 ft | 276 kts | 283° |
| 2026-05-09 03:09 | 25.91795 | 120.30287 | 12010 ft | 276 kts | 283° |
| 2026-05-09 03:09 | 25.92244 | 120.28209 | 11903 ft | 277 kts | 283° |
| 2026-05-09 03:09 | 25.92688 | 120.26152 | 11508 ft | 272 kts | 283° |
| 2026-05-09 03:09 | 25.93122 | 120.24135 | 11129 ft | 267 kts | 283° |
| 2026-05-09 03:10 | 25.93556 | 120.22119 | 10746 ft | 264 kts | 283° |
| 2026-05-09 03:10 | 25.93979 | 120.20155 | 10371 ft | 262 kts | 283° |
| 2026-05-09 03:10 | 25.94397 | 120.18209 | 9997 ft | 260 kts | 283° |
| 2026-05-09 03:10 | 25.94813 | 120.16271 | 9478 ft | 259 kts | 283° |
| 2026-05-09 03:11 | 25.95232 | 120.14320 | 8911 ft | 260 kts | 283° |
| 2026-05-09 03:11 | 25.95651 | 120.12368 | 8286 ft | 262 kts | 283° |
| 2026-05-09 03:11 | 25.96072 | 120.10403 | 7665 ft | 263 kts | 283° |
| 2026-05-09 03:11 | 25.96491 | 120.08447 | 7048 ft | 264 kts | 283° |
| 2026-05-09 03:12 | 25.96916 | 120.06462 | 6423 ft | 264 kts | 283° |
| 2026-05-09 03:12 | 25.97336 | 120.04499 | 5803 ft | 264 kts | 283° |
| 2026-05-09 03:12 | 25.97757 | 120.02530 | 5181 ft | 263 kts | 283° |
| 2026-05-09 03:12 | 25.98179 | 120.00554 | 4554 ft | 262 kts | 283° |
| 2026-05-09 03:13 | 25.99012 | 119.96650 | 3309 ft | 260 kts | 283° |
| 2026-05-09 03:13 | 25.99429 | 119.94694 | 2682 ft | 259 kts | 283° |
| 2026-05-09 03:13 | 25.99839 | 119.92770 | 2284 ft | 248 kts | 283° |
| 2026-05-09 03:14 | 26.00229 | 119.90992 | 2211 ft | 227 kts | 287° |
| 2026-05-09 03:14 | 26.01123 | 119.89700 | 2194 ft | 205 kts | 331° |
| 2026-05-09 03:14 | 26.02453 | 119.89519 | 2196 ft | 186 kts | 15° |
| 2026-05-09 03:14 | 26.03600 | 119.89972 | 2202 ft | 170 kts | 21° |
| 2026-05-09 03:15 | 26.04605 | 119.90413 | 2234 ft | 143 kts | 21° |
| 2026-05-09 03:15 | 26.05471 | 119.90807 | 2208 ft | 132 kts | 22° |
| 2026-05-09 03:15 | 26.06353 | 119.91211 | 2230 ft | 142 kts | 22° |
| 2026-05-09 03:15 | 26.07274 | 119.91631 | 2206 ft | 144 kts | 21° |
| 2026-05-09 03:16 | 26.08206 | 119.92002 | 2089 ft | 138 kts | 20° |
| 2026-05-09 03:16 | 26.09114 | 119.92380 | 1792 ft | 141 kts | 19° |
| 2026-05-09 03:16 | 26.10027 | 119.92750 | 1566 ft | 138 kts | 21° |
| 2026-05-09 03:16 | 26.10912 | 119.93133 | 1277 ft | 136 kts | 22° |
| 2026-05-09 03:17 | 26.11812 | 119.93571 | 975 ft | 143 kts | 25° |
| 2026-05-09 03:17 | 26.12634 | 119.94016 | 768 ft | 126 kts | 26° |
| 2026-05-09 03:17 | 26.13370 | 119.94436 | 608 ft | 110 kts | 27° |
| 2026-05-09 03:17 | 26.14065 | 119.94814 | 520 ft | 111 kts | 25° |
| 2026-05-09 03:18 | 26.14764 | 119.95190 | 375 ft | 111 kts | 25° |
| 2026-05-09 03:18 | 26.15475 | 119.95570 | 206 ft | 112 kts | 26° |
| 2026-05-09 03:18 | 26.15988 | 119.95850 | 236 ft | 44 kts | 26° |
| 2026-05-09 03:18 | 26.16224 | 119.95982 | 236 ft | 32 kts | 21° |
| 2026-05-09 03:19 | 26.16320 | 119.96043 | 230 ft | 9 kts | 178° |
| 2026-05-09 03:19 | 26.16254 | 119.95993 | 236 ft | 11 kts | 214° |
| 2026-05-09 03:19 | 26.16080 | 119.95901 | 236 ft | 41 kts | 206° |
| 2026-05-09 03:19 | 26.15850 | 119.95774 | 226 ft | 34 kts | 206° |
| 2026-05-09 03:20 | 26.15734 | 119.95693 | 219 ft | 9 kts | 264° |
| 2026-05-09 03:20 | 26.15745 | 119.95643 | 224 ft | 6 kts | 273° |
| 2026-05-09 03:20 | 26.15750 | 119.95622 | 225 ft | 0 kts | 294° |